Tigard, Oregon
Current Conditions -  °F | °C
As of 3:57 PM on Friday 21 Nov 2014 (Local Time) from KHIO Reporting Station
Light Rain Light Rain  
Wind Chill: 52°   Ceiling: 1000
Heat Index: 52°   Visibility: 2mi
Dew Point: 50°   Wind: 16mph
Humidity: 93%   Direction: 170°S
Pressure: 29.46"   Gusts: 23mph
Location:  45.43°N, 122.76°W
Report Text: KHIO 212357Z 17014G20KT 2SM -RA BR OVC010 11/10 A2946 RMK AO2 P0000 T01110100
Loading
Personal Weather Stations






























Interactive Weather Map New forecast layout! Learn more

10-Day Weather Forecast

Advertisements
Track Severe Weather on mobile